createdAt,value
2023-03-22T00:01:55.429Z,88.80
2023-03-22T00:04:23.644Z,77.50
2023-03-22T00:06:51.616Z,79.73
2023-03-22T00:09:19.566Z,83.23
2023-03-22T00:11:50.833Z,80.67
2023-03-22T00:14:19.123Z,79.63
2023-03-22T00:16:49.203Z,77.53
2023-03-22T00:19:18.344Z,80.13
2023-03-22T00:21:46.568Z,86.97
2023-03-22T00:24:14.591Z,83.03
2023-03-22T00:26:42.543Z,83.63
2023-03-22T00:29:10.540Z,80.17
2023-03-22T00:31:38.541Z,89.77
2023-03-22T00:34:07.950Z,87.03
2023-03-22T00:36:37.898Z,84.93
2023-03-22T00:39:06.046Z,84.27
2023-03-22T00:41:35.191Z,83.57
2023-03-22T00:44:03.157Z,82.83
2023-03-22T00:46:31.800Z,84.80
2023-03-22T00:48:59.840Z,73.33
2023-03-22T00:51:29.189Z,75.93
2023-03-22T00:53:57.347Z,81.77
2023-03-22T00:56:28.804Z,70.23
2023-03-22T00:59:11.527Z,70.33
2023-03-22T01:01:39.588Z,68.07
2023-03-22T01:04:08.003Z,74.63
2023-03-22T01:06:37.342Z,73.90
2023-03-22T01:09:05.773Z,67.43
2023-03-22T01:11:33.851Z,66.53
2023-03-22T01:14:01.791Z,68.53
2023-03-22T01:16:29.908Z,69.43
2023-03-22T01:18:57.909Z,71.37
2023-03-22T01:21:26.004Z,62.60
2023-03-22T01:23:55.562Z,66.47
2023-03-22T01:26:23.541Z,66.23
2023-03-22T01:28:51.520Z,67.33
2023-03-22T01:31:19.550Z,67.43
2023-03-22T01:33:47.648Z,64.37
2023-03-22T01:36:15.759Z,61.73
2023-03-22T01:38:43.833Z,63.53
2023-03-22T01:41:13.181Z,65.47
2023-03-22T01:43:43.542Z,58.40
2023-03-22T01:46:12.256Z,60.37
2023-03-22T01:48:45.947Z,59.40
2023-03-22T01:51:18.583Z,71.57
2023-03-22T01:54:02.381Z,64.47
2023-03-22T01:56:34.531Z,63.40
2023-03-22T01:59:03.967Z,70.27
2023-03-22T02:01:49.615Z,70.90
2023-03-22T02:04:21.030Z,79.10
2023-03-22T02:06:51.604Z,75.33
2023-03-22T02:09:22.774Z,73.20
2023-03-22T02:12:02.839Z,77.33
2023-03-22T02:14:48.542Z,62.43
2023-03-22T02:17:53.648Z,59.93
2023-03-22T02:21:02.497Z,64.27
2023-03-22T02:24:02.513Z,59.50
2023-03-22T02:26:51.937Z,59.37
2023-03-22T02:29:29.942Z,51.90
2023-03-22T02:32:20.509Z,61.57
2023-03-22T02:35:21.458Z,56.70
2023-03-22T02:38:22.497Z,57.67
2023-03-22T02:40:55.938Z,59.13
2023-03-22T02:43:34.276Z,58.50
2023-03-22T02:46:08.625Z,58.90
2023-03-22T02:48:42.923Z,59.00
2023-03-22T02:51:15.845Z,54.13
2023-03-22T02:53:49.207Z,56.23
2023-03-22T02:56:23.488Z,56.50
2023-03-22T02:58:54.616Z,62.57
2023-03-22T03:01:27.813Z,57.50
2023-03-22T03:03:59.261Z,51.43
2023-03-22T03:06:31.120Z,51.50
2023-03-22T03:09:03.504Z,48.97
2023-03-22T03:11:33.108Z,50.23
2023-03-22T03:14:02.022Z,47.70
2023-03-22T03:16:36.624Z,55.87
2023-03-22T03:19:12.759Z,49.53
2023-03-22T03:21:51.332Z,55.50
2023-03-22T03:24:24.098Z,52.60
2023-03-22T03:27:01.816Z,46.83
2023-03-22T03:29:39.509Z,52.77
2023-03-22T03:32:11.673Z,58.97
2023-03-22T03:34:45.512Z,52.20
2023-03-22T03:37:17.944Z,53.53
2023-03-22T03:39:52.586Z,51.50
2023-03-22T03:42:26.173Z,50.87
2023-03-22T03:44:54.620Z,49.30
2023-03-22T03:47:23.557Z,53.50
2023-03-22T03:49:51.842Z,52.67
2023-03-22T03:52:19.982Z,58.93
2023-03-22T03:54:47.957Z,52.00
2023-03-22T03:57:24.662Z,48.63
2023-03-22T03:59:52.857Z,51.77
2023-03-22T04:02:41.315Z,48.57
2023-03-22T04:05:16.874Z,51.83
2023-03-22T04:07:44.940Z,47.93
2023-03-22T04:10:13.429Z,50.10
2023-03-22T04:12:43.025Z,49.33
2023-03-22T04:15:14.017Z,48.73
2023-03-22T04:17:44.005Z,48.37
2023-03-22T04:20:13.851Z,51.93
2023-03-22T04:22:42.863Z,51.10
2023-03-22T04:25:13.061Z,52.00
2023-03-22T04:27:51.480Z,52.83
2023-03-22T04:30:22.139Z,58.97
2023-03-22T04:33:06.818Z,52.17
2023-03-22T04:36:07.098Z,52.43
2023-03-22T04:38:42.847Z,54.97
2023-03-22T04:41:17.498Z,52.90
2023-03-22T04:43:50.867Z,52.80
2023-03-22T04:46:21.181Z,54.13
2023-03-22T04:48:55.147Z,59.13
2023-03-22T04:51:24.054Z,50.37
2023-03-22T04:54:10.125Z,55.30
2023-03-22T04:56:41.544Z,54.30
2023-03-22T04:59:11.650Z,55.57
2023-03-22T05:01:40.816Z,59.87
2023-03-22T05:04:18.666Z,55.67
2023-03-22T05:06:47.554Z,53.57
2023-03-22T05:09:23.634Z,60.27
2023-03-22T05:11:54.346Z,57.77
2023-03-22T05:14:40.737Z,57.63
2023-03-22T05:17:11.550Z,64.37
2023-03-22T05:19:41.020Z,66.03
2023-03-22T05:22:12.100Z,62.30
2023-03-22T05:24:45.639Z,59.40
2023-03-22T05:27:31.197Z,73.60
2023-03-22T05:30:09.872Z,66.67
2023-03-22T05:32:50.302Z,67.40
2023-03-22T05:35:20.219Z,61.00
2023-03-22T05:37:53.340Z,67.20
2023-03-22T05:40:23.691Z,61.60
2023-03-22T05:42:52.021Z,74.80
2023-03-22T05:45:26.138Z,79.20
2023-03-22T05:48:06.258Z,80.30
2023-03-22T05:50:35.290Z,76.77
2023-03-22T05:53:04.173Z,62.40
2023-03-22T05:55:37.560Z,68.10
2023-03-22T05:58:08.379Z,58.20
2023-03-22T06:00:41.196Z,60.90
2023-03-22T06:03:25.810Z,57.50
2023-03-22T06:06:11.922Z,59.77
2023-03-22T06:08:50.241Z,58.40
2023-03-22T06:11:19.262Z,66.13
2023-03-22T06:13:47.717Z,59.27
2023-03-22T06:16:18.646Z,63.17
2023-03-22T06:18:46.729Z,66.20
2023-03-22T06:21:14.696Z,66.53
2023-03-22T06:23:43.634Z,67.47
2023-03-22T06:26:12.645Z,63.20
2023-03-22T06:28:42.752Z,62.33
2023-03-22T06:31:12.105Z,57.73
2023-03-22T06:34:04.679Z,51.53
2023-03-22T06:36:38.514Z,38.97
2023-03-22T06:39:10.464Z,38.87
2023-03-22T06:41:39.299Z,36.23
2023-03-22T06:44:07.532Z,32.10
2023-03-22T06:46:55.754Z,26.77
2023-03-22T06:49:43.475Z,28.53
2023-03-22T06:52:17.552Z,27.40
2023-03-22T06:54:45.701Z,27.07
2023-03-22T06:57:14.319Z,25.63
2023-03-22T06:59:42.314Z,29.80
2023-03-22T07:02:12.577Z,28.77
2023-03-22T07:04:46.159Z,25.03
2023-03-22T07:07:14.520Z,20.03
2023-03-22T07:09:42.596Z,23.30
2023-03-22T07:12:10.573Z,22.90
2023-03-22T07:14:39.172Z,19.53
2023-03-22T07:17:22.717Z,21.53
2023-03-22T07:19:53.186Z,23.80
2023-03-22T07:22:24.777Z,21.83
2023-03-22T07:24:58.345Z,21.47
2023-03-22T07:27:30.203Z,22.73
2023-03-22T07:30:00.146Z,20.57
2023-03-22T07:32:29.643Z,18.10
2023-03-22T07:35:13.772Z,19.33
2023-03-22T07:37:42.514Z,20.40
2023-03-22T07:40:20.425Z,22.93
2023-03-22T07:42:49.422Z,21.77
2023-03-22T07:45:26.304Z,23.57
2023-03-22T07:48:17.882Z,19.03
2023-03-22T07:51:00.494Z,23.40
2023-03-22T07:53:28.560Z,22.37
2023-03-22T07:55:56.589Z,19.90
2023-03-22T07:58:24.638Z,22.57
2023-03-22T08:00:52.763Z,19.93
2023-03-22T08:03:43.244Z,20.33
2023-03-22T08:06:32.757Z,22.37
2023-03-22T08:09:01.540Z,22.70
2023-03-22T08:11:29.993Z,20.73
2023-03-22T08:13:59.632Z,20.77
2023-03-22T08:16:28.503Z,19.57
2023-03-22T08:18:57.811Z,20.70
2023-03-22T08:21:28.292Z,19.53
2023-03-22T08:23:59.213Z,19.73
2023-03-22T08:26:27.344Z,18.50
2023-03-22T08:28:58.420Z,16.77
2023-03-22T08:31:26.984Z,21.43
2023-03-22T08:33:55.371Z,19.40
2023-03-22T08:36:23.831Z,20.63
2023-03-22T08:39:01.438Z,21.43
2023-03-22T08:41:52.677Z,18.83
2023-03-22T08:44:20.911Z,20.97
2023-03-22T08:46:48.952Z,20.53
2023-03-22T08:49:16.959Z,20.77
2023-03-22T08:51:58.786Z,20.87
2023-03-22T08:54:42.588Z,21.27
2023-03-22T08:57:29.521Z,19.10
2023-03-22T09:00:39.262Z,20.03
2023-03-22T09:03:35.268Z,18.43
2023-03-22T09:06:03.271Z,17.57
2023-03-22T09:08:36.182Z,20.20
2023-03-22T09:11:11.974Z,20.47
2023-03-22T09:13:40.739Z,19.03
2023-03-22T09:16:09.721Z,19.23
2023-03-22T09:18:38.397Z,17.97
2023-03-22T09:21:13.075Z,22.20
2023-03-22T09:23:51.149Z,19.70
2023-03-22T09:26:25.672Z,17.20
2023-03-22T09:28:54.160Z,17.77
2023-03-22T09:31:22.293Z,19.97
2023-03-22T09:34:01.385Z,18.73
2023-03-22T09:36:29.384Z,20.17
2023-03-22T09:38:57.392Z,20.50
2023-03-22T09:41:32.982Z,20.37
2023-03-22T09:44:06.386Z,23.60
2023-03-22T09:46:38.786Z,19.53
2023-03-22T09:49:11.429Z,19.70
2023-03-22T09:51:42.098Z,17.83
2023-03-22T09:54:15.988Z,17.13
2023-03-22T09:56:47.824Z,18.00
2023-03-22T09:59:22.954Z,15.97
2023-03-22T10:01:56.737Z,18.73
2023-03-22T10:04:49.092Z,21.30
2023-03-22T10:07:28.210Z,16.50
2023-03-22T10:10:06.201Z,17.73
2023-03-22T10:12:43.321Z,16.93
2023-03-22T10:15:16.283Z,16.83
2023-03-22T10:17:47.291Z,17.00
2023-03-22T10:20:25.141Z,16.80
2023-03-22T10:22:55.832Z,17.10
2023-03-22T10:25:34.645Z,19.30
2023-03-22T10:28:11.199Z,16.80
2023-03-22T10:30:41.708Z,17.93
2023-03-22T10:33:17.438Z,16.03
2023-03-22T10:35:46.324Z,20.70
2023-03-22T10:38:22.338Z,17.80
2023-03-22T10:40:51.402Z,17.27
2023-03-22T10:43:23.793Z,18.23
2023-03-22T10:45:54.410Z,21.23
2023-03-22T10:48:28.376Z,17.47
2023-03-22T10:50:59.058Z,21.13
2023-03-22T10:53:35.886Z,18.87
2023-03-22T10:56:04.739Z,17.13
2023-03-22T10:58:35.380Z,18.23
2023-03-22T11:01:08.252Z,20.60
2023-03-22T11:03:42.035Z,17.53
2023-03-22T11:06:13.238Z,20.53
2023-03-22T11:08:46.879Z,16.93
2023-03-22T11:11:18.606Z,20.80
2023-03-22T11:13:54.676Z,18.47
2023-03-22T11:16:24.227Z,16.70
2023-03-22T11:18:52.594Z,18.37
2023-03-22T11:21:24.782Z,17.83
2023-03-22T11:23:59.346Z,16.70
2023-03-22T11:26:37.226Z,19.50
2023-03-22T11:29:14.669Z,18.77
2023-03-22T11:31:57.248Z,18.17
2023-03-22T11:34:28.167Z,34.27
2023-03-22T11:36:57.606Z,45.47
2023-03-22T11:39:28.304Z,91.50
2023-03-22T11:42:01.171Z,194.53
2023-03-22T11:44:35.439Z,43.83
2023-03-22T11:47:05.284Z,79.23
2023-03-22T11:49:44.537Z,46.60
2023-03-22T11:52:18.602Z,199.13
2023-03-22T11:54:48.920Z,125.20
2023-03-22T11:57:21.146Z,58.43
2023-03-22T11:59:58.144Z,20.30
2023-03-22T12:02:30.117Z,25.70
2023-03-22T12:05:02.327Z,50.90
2023-03-22T12:07:32.854Z,53.33
2023-03-22T12:10:06.134Z,26.73
2023-03-22T12:12:39.804Z,34.90
2023-03-22T12:15:16.512Z,55.87
2023-03-22T12:17:48.512Z,348.07
2023-03-22T12:20:23.165Z,76.63
2023-03-22T12:22:54.778Z,26.80
2023-03-22T12:25:26.581Z,49.77
2023-03-22T12:27:57.396Z,17.23
2023-03-22T12:30:29.057Z,39.67
2023-03-22T12:33:02.616Z,19.40
2023-03-22T12:35:32.773Z,19.90
2023-03-22T12:38:07.229Z,43.23
2023-03-22T12:40:40.061Z,56.57
2023-03-22T12:43:15.897Z,25.83
2023-03-22T12:45:49.451Z,17.07
2023-03-22T12:48:21.767Z,21.47
2023-03-22T12:50:54.193Z,16.43
2023-03-22T12:53:23.928Z,16.67
2023-03-22T12:55:52.643Z,13.93
2023-03-22T12:58:23.242Z,48.17
2023-03-22T13:00:55.900Z,30.80
2023-03-22T13:03:28.816Z,18.23
2023-03-22T13:06:06.720Z,19.90
2023-03-22T13:09:16.159Z,18.97
2023-03-22T13:11:46.258Z,14.63
2023-03-22T13:14:56.074Z,20.47
2023-03-22T13:17:44.512Z,17.13
2023-03-22T13:20:27.777Z,14.73
2023-03-22T13:23:05.573Z,18.43
2023-03-22T13:25:36.934Z,22.90
2023-03-22T13:28:21.735Z,17.43
2023-03-22T13:30:52.522Z,20.13
2023-03-22T13:33:27.390Z,17.17
2023-03-22T13:35:58.783Z,24.60
2023-03-22T13:38:28.711Z,20.03
2023-03-22T13:41:03.574Z,15.00
2023-03-22T13:43:34.927Z,16.87
2023-03-22T13:46:15.151Z,18.90
2023-03-22T13:48:53.963Z,16.37
2023-03-22T13:51:30.219Z,16.17
2023-03-22T13:54:02.460Z,19.23
2023-03-22T13:56:35.817Z,15.57
2023-03-22T13:59:05.321Z,17.67
2023-03-22T14:01:36.217Z,23.77
2023-03-22T14:04:10.187Z,18.77
2023-03-22T14:06:46.162Z,17.50
2023-03-22T14:09:19.889Z,20.20
2023-03-22T14:11:55.223Z,21.10
2023-03-22T14:14:28.271Z,19.97
2023-03-22T14:17:04.899Z,18.27
2023-03-22T14:19:35.953Z,15.37
